Time;durP1;ratioP1;P1;durP2;ratioP2;P2;SDS_P1;SDS_P2;PMS_P1;PMS_P2;Temp;Humidity;BMP_temperature;BMP_pressure;BME280_temperature;BME280_humidity;BME280_pressure;Samples;Min_cycle;Max_cycle;Signal;HPM_P1;HPM_P2
2021/03/20 00:01:31;;;;;;;13.70;7.53;;;;;;;-0.87;79.00;96701.00;5052374;28;20504;-69
2021/03/20 00:03:57;;;;;;;17.00;8.05;;;;;;;-0.88;79.15;96707.41;5052202;28;20072;-69
2021/03/20 00:06:29;;;;;;;12.68;7.22;;;;;;;-0.89;78.98;96708.47;5052114;28;20044;-69
2021/03/20 00:08:56;;;;;;;12.90;7.13;;;;;;;-0.91;79.08;96702.53;5051779;28;20140;-69
2021/03/20 00:11:24;;;;;;;11.95;6.95;;;;;;;-0.92;78.76;96708.94;5052197;28;20037;-69
2021/03/20 00:13:51;;;;;;;12.85;7.40;;;;;;;-0.94;78.91;96712.88;5051549;28;20044;-69
2021/03/20 00:16:17;;;;;;;14.77;7.55;;;;;;;-0.94;78.80;96716.38;5052198;28;20048;-69
2021/03/20 00:18:45;;;;;;;14.63;7.65;;;;;;;-0.96;78.87;96714.97;5051449;28;20044;-69
2021/03/20 00:21:13;;;;;;;14.73;7.55;;;;;;;-0.99;78.83;96712.75;5071019;28;20045;-69
2021/03/20 00:23:39;;;;;;;13.23;7.05;;;;;;;-1.01;78.75;96713.00;5051866;28;20508;-69
2021/03/20 00:26:06;;;;;;;12.65;6.65;;;;;;;-1.03;78.85;96712.44;5051510;28;20056;-69
2021/03/20 00:28:32;;;;;;;13.68;7.78;;;;;;;-1.03;78.83;96717.78;5052111;28;20044;-69
2021/03/20 00:31:03;;;;;;;12.80;6.88;;;;;;;-1.05;78.78;96714.53;5051326;28;20056;-69
2021/03/20 00:33:30;;;;;;;12.50;7.07;;;;;;;-1.06;78.70;96718.25;5052281;28;20037;-68
2021/03/20 00:35:56;;;;;;;10.48;6.20;;;;;;;-1.09;78.63;96726.75;5051244;28;20393;-69
2021/03/20 00:38:24;;;;;;;12.02;6.85;;;;;;;-1.11;78.79;96716.28;5052032;28;20040;-69
2021/03/20 00:40:51;;;;;;;14.80;6.95;;;;;;;-1.10;78.78;96725.09;5051174;28;20508;-69
2021/03/20 00:43:17;;;;;;;11.40;5.88;;;;;;;-1.11;78.46;96726.16;5051484;28;20045;-69
2021/03/20 00:45:43;;;;;;;13.00;6.82;;;;;;;-1.11;78.05;96726.16;5051465;28;20068;-69
2021/03/20 00:48:15;;;;;;;12.35;6.40;;;;;;;-1.13;77.91;96728.25;5050990;28;20577;-69
2021/03/20 00:50:42;;;;;;;11.73;6.65;;;;;;;-1.15;77.87;96730.34;5067472;28;20047;-68
2021/03/20 00:53:09;;;;;;;9.85;6.40;;;;;;;-1.17;77.72;96727.91;5054011;28;20061;-69
2021/03/20 00:55:35;;;;;;;11.68;6.30;;;;;;;-1.17;77.76;96727.09;5051858;28;20041;-69
2021/03/20 00:58:17;;;;;;;11.63;6.50;;;;;;;-1.22;77.85;96729.66;5049504;28;20041;-70
2021/03/20 01:00:43;;;;;;;10.45;6.55;;;;;;;-1.23;77.66;96723.50;5051954;28;20041;-69
2021/03/20 01:03:10;;;;;;;10.68;6.30;;;;;;;-1.24;77.82;96726.41;5050715;28;20053;-69
2021/03/20 01:05:36;;;;;;;11.80;5.97;;;;;;;-1.27;77.90;96727.69;5051647;28;20040;-69
2021/03/20 01:08:02;;;;;;;12.45;6.45;;;;;;;-1.28;77.76;96725.25;5050717;28;20045;-69
2021/03/20 01:10:28;;;;;;;10.30;6.22;;;;;;;-1.32;77.88;96720.38;5050402;28;20053;-69
2021/03/20 01:12:54;;;;;;;11.00;5.70;;;;;;;-1.33;77.24;96724.09;5050955;28;20041;-69
2021/03/20 01:15:21;;;;;;;10.80;6.55;;;;;;;-1.36;76.61;96729.06;5049180;28;20102;-69
2021/03/20 01:17:47;;;;;;;11.65;5.57;;;;;;;-1.39;76.05;96729.56;5051413;28;20049;-69
2021/03/20 01:20:15;;;;;;;11.02;5.57;;;;;;;-1.44;75.63;96732.13;5050005;28;20099;-68
2021/03/20 01:22:41;;;;;;;8.98;5.07;;;;;;;-1.49;75.52;96724.78;5051726;28;20049;-69
2021/03/20 01:25:09;;;;;;;10.88;6.40;;;;;;;-1.51;75.46;96726.91;5049842;28;20548;-69
2021/03/20 01:27:35;;;;;;;11.60;5.93;;;;;;;-1.53;76.11;96723.63;5051094;28;20392;-68
2021/03/20 01:30:01;;;;;;;9.90;5.55;;;;;;;-1.54;76.69;96724.69;5050420;28;20048;-69
2021/03/20 01:32:27;;;;;;;9.48;5.63;;;;;;;-1.54;76.94;96726.53;5050918;28;20046;-68
2021/03/20 01:34:53;;;;;;;12.23;6.03;;;;;;;-1.57;77.22;96722.47;5051083;28;20175;-68
2021/03/20 01:37:20;;;;;;;11.57;6.32;;;;;;;-1.56;77.50;96721.44;5050572;28;20049;-69
2021/03/20 01:39:46;;;;;;;12.88;6.38;;;;;;;-1.56;77.74;96724.09;5051278;28;20045;-69
2021/03/20 01:42:13;;;;;;;11.43;6.50;;;;;;;-1.53;77.99;96720.16;5049391;28;20075;-69
2021/03/20 01:44:39;;;;;;;11.38;6.60;;;;;;;-1.53;78.22;96728.97;5051247;28;20045;-69
2021/03/20 01:47:12;;;;;;;11.98;6.20;;;;;;;-1.50;78.38;96739.19;5049457;28;20052;-69
2021/03/20 01:49:41;;;;;;;;;;;;;;;-1.45;78.54;96735.84;5051448;28;20045;-69
2021/03/20 01:52:19;;;;;;;13.25;6.65;;;;;;;-1.48;78.53;96737.09;5049763;28;19920;-68
2021/03/20 01:54:52;;;;;;;11.88;6.60;;;;;;;-1.42;78.62;96741.50;5050428;28;20045;-69
2021/03/20 01:57:23;;;;;;;12.70;6.30;;;;;;;-1.37;78.66;96738.16;5050133;28;20504;-69
2021/03/20 01:59:50;;;;;;;11.82;6.43;;;;;;;-1.33;78.74;96737.44;5049984;28;20052;-69
2021/03/20 02:02:17;;;;;;;13.82;6.93;;;;;;;-1.34;78.73;96735.84;5050581;28;20056;-69
2021/03/20 02:04:43;;;;;;;11.68;6.15;;;;;;;-1.35;78.60;96730.72;5049886;28;20052;-69
2021/03/20 02:07:09;;;;;;;12.85;6.40;;;;;;;-1.32;78.63;96733.72;5050574;28;20140;-69
2021/03/20 02:09:36;;;;;;;12.43;6.85;;;;;;;-1.22;78.74;96732.34;5049670;28;20488;-69
2021/03/20 02:12:15;;;;;;;11.13;7.10;;;;;;;-1.12;78.75;96729.88;5050220;28;20044;-69
2021/03/20 02:14:51;;;;;;;12.35;6.68;;;;;;;-1.01;78.68;96728.25;5050586;28;20405;-69
2021/03/20 02:17:30;;;;;;;12.93;7.38;;;;;;;-0.99;78.38;96734.16;5049460;28;20037;-69
2021/03/20 02:20:53;;;;;;;13.57;7.30;;;;;;;-0.92;78.08;96730.31;5050564;28;20056;-69
2021/03/20 02:23:59;;;;;;;11.32;6.93;;;;;;;-0.96;77.90;96729.16;5049473;28;20546;-69
2021/03/20 02:26:50;;;;;;;11.75;7.10;;;;;;;-0.89;77.93;96739.72;5049177;28;20045;-69
2021/03/20 02:29:45;;;;;;;13.93;7.22;;;;;;;-0.86;77.94;96734.72;5030093;28;20045;-69
2021/03/20 02:32:32;;;;;;;12.65;6.97;;;;;;;-0.87;77.69;96726.94;5029326;28;20520;-69
2021/03/20 02:35:04;;;;;;;13.23;7.70;;;;;;;-0.90;77.86;96738.09;5029883;28;20390;-69
2021/03/20 02:37:41;;;;;;;14.53;7.87;;;;;;;-0.90;77.80;96733.56;5030075;28;20037;-69
2021/03/20 02:40:15;;;;;;;13.55;7.53;;;;;;;-0.89;77.75;96735.22;5029105;28;20053;-68
2021/03/20 02:42:45;;;;;;;13.90;7.65;;;;;;;-0.94;77.73;96735.09;5030452;28;20099;-69
2021/03/20 02:45:18;;;;;;;14.75;7.70;;;;;;;-0.95;77.73;96736.13;5029025;28;20128;-69
2021/03/20 02:47:54;;;;;;;16.00;8.53;;;;;;;-0.94;77.79;96731.59;5030273;28;20048;-69
2021/03/20 02:50:23;;;;;;;15.13;8.30;;;;;;;-1.00;77.70;96733.34;5057504;28;20056;-69
2021/03/20 02:52:55;;;;;;;17.15;8.27;;;;;;;-1.04;77.65;96737.56;5055691;28;20049;-69
2021/03/20 02:55:25;;;;;;;14.50;8.00;;;;;;;-1.08;77.99;96736.38;5049650;28;20059;-69
2021/03/20 02:57:57;;;;;;;13.57;7.40;;;;;;;-1.10;77.97;96739.31;5048987;28;20037;-69
2021/03/20 03:00:28;;;;;;;14.00;7.40;;;;;;;-1.13;77.91;96738.94;5050211;28;20045;-69
2021/03/20 03:02:57;;;;;;;12.75;7.28;;;;;;;-1.16;77.75;96744.75;5049297;28;20048;-69
2021/03/20 03:05:27;;;;;;;13.48;6.85;;;;;;;-1.18;77.91;96742.31;5049606;28;20045;-69
2021/03/20 03:07:58;;;;;;;13.32;7.45;;;;;;;-1.20;78.02;96743.59;5049579;28;20381;-68
2021/03/20 03:10:29;;;;;;;16.52;8.70;;;;;;;-1.17;78.63;96745.81;5049221;28;20052;-68
2021/03/20 03:13:00;;;;;;;15.88;7.65;;;;;;;-1.08;78.71;96741.75;5050081;28;20053;-69
2021/03/20 03:15:29;;;;;;;15.57;7.60;;;;;;;-0.96;78.71;96742.53;5048669;28;20049;-69
2021/03/20 03:18:01;;;;;;;13.02;7.28;;;;;;;-0.91;78.48;96747.97;5050151;28;20041;-69
2021/03/20 03:20:30;;;;;;;10.65;6.13;;;;;;;-0.91;78.21;96747.97;5063958;28;20048;-69
2021/03/20 03:23:00;;;;;;;13.25;7.32;;;;;;;-0.86;78.17;96752.63;5058692;28;20103;-69
2021/03/20 03:25:29;;;;;;;13.05;6.80;;;;;;;-0.87;77.73;96751.00;5052741;28;20114;-69
2021/03/20 03:28:00;;;;;;;11.77;6.80;;;;;;;-0.81;77.78;96750.06;5052976;28;20589;-69
2021/03/20 03:30:27;;;;;;;13.63;7.30;;;;;;;-0.76;77.61;96747.47;5053009;28;20044;-69
2021/03/20 03:33:02;;;;;;;12.23;6.53;;;;;;;-0.70;77.75;96759.91;5052741;28;20044;-69
2021/03/20 03:35:33;;;;;;;10.95;6.47;;;;;;;-0.70;77.22;96753.75;5053185;28;20099;-68
2021/03/20 03:38:05;;;;;;;11.93;6.60;;;;;;;-0.73;76.98;96754.22;5052257;28;20060;-69
2021/03/20 03:40:36;;;;;;;11.65;6.43;;;;;;;-0.71;77.25;96752.94;5053461;28;20041;-69
2021/03/20 03:43:03;;;;;;;13.40;6.75;;;;;;;-0.77;77.13;96756.56;5051658;28;20454;-69
2021/03/20 03:45:29;;;;;;;11.25;6.50;;;;;;;-0.80;77.22;96754.34;5052944;28;20411;-69
2021/03/20 03:47:58;;;;;;;11.75;6.43;;;;;;;-0.85;77.33;96756.91;5049468;28;20060;-68
2021/03/20 03:50:28;;;;;;;11.70;6.03;;;;;;;-0.90;77.25;96749.59;5052262;28;20124;-69
2021/03/20 03:52:54;;;;;;;11.63;6.45;;;;;;;-0.96;77.08;96755.88;5053139;28;20049;-69
2021/03/20 03:55:21;;;;;;;12.25;6.10;;;;;;;-1.00;77.00;96757.41;5051462;28;20518;-69
2021/03/20 03:57:58;;;;;;;12.20;6.28;;;;;;;-0.99;77.25;96759.06;5052999;28;20041;-68
2021/03/20 04:00:34;;;;;;;11.70;6.07;;;;;;;-0.99;77.43;96760.88;5051512;28;20100;-69
2021/03/20 04:03:35;;;;;;;9.77;5.50;;;;;;;-1.00;77.64;96753.91;5052852;28;20492;-69
2021/03/20 04:06:10;;;;;;;13.18;6.00;;;;;;;-1.01;77.73;96753.09;5036489;28;20041;-70
2021/03/20 04:08:44;;;;;;;9.43;5.68;;;;;;;-1.00;77.84;96764.59;5052048;28;20048;-69
2021/03/20 04:11:17;;;;;;;12.25;5.65;;;;;;;-1.02;77.81;96764.84;5052558;28;20045;-69
2021/03/20 04:13:49;;;;;;;10.73;6.53;;;;;;;-0.99;77.70;96761.72;5051937;28;20037;-69
2021/03/20 04:16:17;;;;;;;12.10;5.97;;;;;;;-1.00;77.51;96764.59;5052366;28;20045;-69
2021/03/20 04:18:57;;;;;;;8.52;5.07;;;;;;;-0.99;77.60;96763.56;5051588;28;20114;-68
2021/03/20 04:21:30;;;;;;;9.95;5.40;;;;;;;-0.94;77.52;96769.84;5051808;28;20047;-69
2021/03/20 04:24:05;;;;;;;10.00;5.32;;;;;;;-0.96;77.39;96760.41;5052476;28;20635;-69
2021/03/20 04:26:39;;;;;;;9.73;5.25;;;;;;;-0.96;77.49;96766.56;5051277;28;20045;-69
2021/03/20 04:29:12;;;;;;;9.70;5.25;;;;;;;-0.91;77.70;96766.69;5052013;28;20099;-69
2021/03/20 04:31:42;;;;;;;8.90;5.15;;;;;;;-0.91;77.61;96769.38;5051474;28;20052;-69
2021/03/20 04:34:17;;;;;;;8.65;4.80;;;;;;;-0.94;77.48;96775.19;5052003;28;20053;-68
2021/03/20 04:36:46;;;;;;;8.88;5.15;;;;;;;-0.90;77.62;96767.50;5051690;28;20051;-69
2021/03/20 04:39:15;;;;;;;9.18;4.88;;;;;;;-0.84;77.59;96770.03;5051480;28;20040;-68
2021/03/20 04:41:42;;;;;;;8.82;4.95;;;;;;;-0.75;77.84;96772.38;5051819;28;20042;-68
2021/03/20 04:44:09;;;;;;;8.48;5.10;;;;;;;-0.70;78.04;96775.16;5050965;28;20045;-69
2021/03/20 04:46:36;;;;;;;12.43;5.50;;;;;;;-0.68;77.97;96775.72;5052172;28;20069;-69
2021/03/20 04:49:12;;;;;;;10.13;5.05;;;;;;;-0.72;77.39;96777.25;5050354;28;20049;-69
2021/03/20 04:51:44;;;;;;;11.40;5.63;;;;;;;-0.75;77.84;96783.06;5052399;28;20496;-68
2021/03/20 04:54:16;;;;;;;11.80;5.88;;;;;;;-0.79;77.39;96772.81;5050604;28;20049;-69
2021/03/20 04:56:47;;;;;;;8.13;5.03;;;;;;;-0.79;77.01;96778.16;5051614;28;20056;-68
2021/03/20 04:59:30;;;;;;;7.22;5.00;;;;;;;-0.76;77.57;96786.78;5051017;28;20056;-69
2021/03/20 05:02:00;;;;;;;10.40;5.38;;;;;;;-0.84;76.27;96785.28;5051071;28;20290;-68
2021/03/20 05:04:30;;;;;;;8.45;5.18;;;;;;;-0.84;76.67;96786.09;5051648;28;20052;-68
2021/03/20 05:07:01;;;;;;;9.07;5.32;;;;;;;-0.94;76.91;96780.53;5050910;28;20056;-68
2021/03/20 05:09:28;;;;;;;8.90;5.13;;;;;;;-0.99;76.73;96788.44;5051421;28;20040;-68
2021/03/20 05:11:56;;;;;;;9.15;5.25;;;;;;;-0.98;76.85;96790.06;5050734;28;20523;-68
2021/03/20 05:14:29;;;;;;;9.70;5.60;;;;;;;-0.95;76.98;96789.59;5050738;28;20044;-68
2021/03/20 05:16:57;;;;;;;10.63;5.60;;;;;;;-0.98;76.46;96795.41;5051010;28;20036;-68
2021/03/20 05:19:25;;;;;;;9.07;5.60;;;;;;;-0.97;76.74;96791.69;5050206;28;20048;-68
2021/03/20 05:21:54;;;;;;;9.85;6.13;;;;;;;-0.93;76.82;96795.53;5051605;28;20044;-68
2021/03/20 05:24:25;;;;;;;10.70;6.05;;;;;;;-0.83;76.72;96797.63;5049937;28;20060;-68
2021/03/20 05:26:51;;;;;;;7.70;5.13;;;;;;;-0.80;76.00;96803.28;5051432;28;20488;-68
2021/03/20 05:29:18;;;;;;;8.93;5.57;;;;;;;-0.86;76.14;96803.41;5049821;28;20060;-68
2021/03/20 05:31:44;;;;;;;8.50;5.13;;;;;;;-0.91;75.51;96801.44;5051333;28;20048;-68
2021/03/20 05:34:18;;;;;;;7.95;5.03;;;;;;;-1.01;74.62;96803.91;5050015;28;20045;-68
2021/03/20 05:36:44;;;;;;;7.50;4.63;;;;;;;-0.98;74.76;96799.94;5050535;28;20099;-69
2021/03/20 05:39:10;;;;;;;8.88;5.05;;;;;;;-0.97;75.41;96813.06;5050256;28;20072;-68
2021/03/20 05:42:03;;;;;;;8.30;4.97;;;;;;;-0.94;75.55;96807.28;5050416;28;20605;-69
2021/03/20 05:44:48;;;;;;;8.73;4.93;;;;;;;-0.88;75.91;96818.91;5047242;28;20045;-68
2021/03/20 05:47:25;;;;;;;8.90;5.43;;;;;;;-0.90;76.13;96813.75;5049357;28;20048;-68
2021/03/20 05:50:02;;;;;;;8.35;5.57;;;;;;;-1.04;76.17;96815.06;5050834;28;20105;-68
2021/03/20 05:52:42;;;;;;;8.88;5.50;;;;;;;-1.00;76.66;96818.06;5050411;28;20102;-69
2021/03/20 05:55:22;;;;;;;7.80;5.25;;;;;;;-0.99;76.52;96815.19;5049276;28;20550;-69
2021/03/20 05:58:01;;;;;;;10.20;5.25;;;;;;;-1.00;76.21;96823.41;5051017;28;20037;-68
2021/03/20 06:00:37;;;;;;;8.27;4.75;;;;;;;-1.10;75.79;96821.31;5049551;28;20110;-68
2021/03/20 06:03:31;;;;;;;9.95;4.93;;;;;;;-1.11;76.02;96823.19;5050354;28;20052;-68
2021/03/20 06:06:01;;;;;;;7.15;4.72;;;;;;;-1.22;75.53;96831.19;5050206;28;20500;-68
2021/03/20 06:08:42;;;;;;;10.30;5.72;;;;;;;-1.31;75.62;96833.38;5049770;28;20519;-68
2021/03/20 06:11:23;;;;;;;8.13;5.13;;;;;;;-1.37;75.48;96829.78;5050325;28;20496;-69
2021/03/20 06:14:03;;;;;;;7.50;4.93;;;;;;;-1.30;75.69;96839.56;5049708;28;20057;-69
2021/03/20 06:16:33;;;;;;;7.45;4.88;;;;;;;-1.33;74.23;96840.84;5050170;28;20045;-68
2021/03/20 06:19:37;;;;;;;8.13;5.00;;;;;;;-1.38;73.67;96838.03;5049891;28;20068;-68
2021/03/20 06:22:26;;;;;;;8.27;5.07;;;;;;;-1.40;75.01;96846.28;5049126;28;20037;-69
2021/03/20 06:25:11;;;;;;;7.53;4.90;;;;;;;-1.40;74.91;96846.28;5050734;28;20059;-68
2021/03/20 06:27:42;;;;;;;9.07;5.70;;;;;;;-1.45;74.94;96848.84;5048941;28;20400;-68
2021/03/20 06:30:28;;;;;;;10.75;5.57;;;;;;;-1.37;75.18;96850.34;5049621;28;20041;-68
2021/03/20 06:33:02;;;;;;;8.35;5.43;;;;;;;-1.26;75.43;96862.09;5050475;28;20045;-68
2021/03/20 06:35:35;;;;;;;9.57;5.57;;;;;;;-1.23;74.76;96856.31;5049162;28;20445;-68
2021/03/20 06:38:03;;;;;;;8.57;5.50;;;;;;;-1.13;74.39;96875.25;5050764;28;20042;-68
2021/03/20 06:40:47;;;;;;;8.25;5.22;;;;;;;-1.16;73.71;96870.34;5048970;28;20474;-68
2021/03/20 06:43:15;;;;;;;8.32;5.07;;;;;;;-1.29;73.15;96876.75;5049792;28;20053;-68
2021/03/20 06:45:42;;;;;;;9.38;5.70;;;;;;;-1.30;73.91;96875.13;5049458;28;20045;-68
2021/03/20 06:48:12;;;;;;;8.95;5.20;;;;;;;-1.22;74.65;96879.28;5049275;28;20052;-69
2021/03/20 06:50:42;;;;;;;8.80;5.55;;;;;;;-1.10;74.41;96877.44;5050004;28;20052;-68
2021/03/20 06:53:11;;;;;;;9.15;5.25;;;;;;;-1.00;74.58;96887.56;5049067;28;20090;-68
2021/03/20 06:55:40;;;;;;;7.82;4.95;;;;;;;-0.86;74.78;96886.31;5051851;28;20045;-68
2021/03/20 06:58:17;;;;;;;7.65;4.80;;;;;;;-0.76;74.05;96883.06;5052615;28;20045;-68
2021/03/20 07:00:45;;;;;;;9.05;5.07;;;;;;;-0.67;73.81;96892.34;5054095;28;20095;-69
2021/03/20 07:03:46;;;;;;;6.82;4.50;;;;;;;-0.59;72.94;96889.31;5052379;28;20041;-68
2021/03/20 07:06:16;;;;;;;7.47;5.00;;;;;;;-0.56;73.23;96894.22;5052798;28;20053;-68
2021/03/20 07:08:47;;;;;;;7.53;4.60;;;;;;;-0.58;72.60;96897.09;5053995;28;20041;-69
2021/03/20 07:11:26;;;;;;;10.65;5.93;;;;;;;-0.61;72.73;96896.78;5052432;28;20041;-68
2021/03/20 07:13:55;;;;;;;9.60;5.28;;;;;;;-0.64;72.50;96897.22;5054096;28;20040;-68
2021/03/20 07:16:24;;;;;;;8.98;5.95;;;;;;;-0.66;72.88;96910.03;5052464;28;20052;-69
2021/03/20 07:18:51;;;;;;;9.10;5.70;;;;;;;-0.60;72.92;96909.91;5053154;28;20051;-69
2021/03/20 07:21:39;;;;;;;9.65;5.78;;;;;;;-0.55;72.22;96906.53;5053026;28;20048;-69
2021/03/20 07:24:10;;;;;;;13.57;7.35;;;;;;;-0.46;72.60;96910.50;5049155;28;20098;-69
2021/03/20 07:26:53;;;;;;;11.25;6.20;;;;;;;-0.31;72.23;96907.34;5053813;28;20060;-68
2021/03/20 07:29:36;;;;;;;12.40;7.00;;;;;;;-0.34;71.11;96903.25;5032215;28;20049;-68
2021/03/20 07:32:04;;;;;;;10.05;6.97;;;;;;;-0.23;71.34;96911.50;5032924;28;20049;-69
2021/03/20 07:34:34;;;;;;;10.35;6.53;;;;;;;-0.23;70.59;96914.16;5033086;28;20566;-68
2021/03/20 07:37:12;;;;;;;11.23;6.85;;;;;;;-0.13;70.70;96911.72;5038424;28;20052;-73
2021/03/20 07:39:44;;;;;;;11.23;6.50;;;;;;;0.14;70.24;96915.47;5048770;28;20048;-73
2021/03/20 07:42:26;;;;;;;11.23;6.35;;;;;;;0.42;69.20;96912.00;5048506;28;20045;-73
2021/03/20 07:44:56;;;;;;;10.60;6.28;;;;;;;0.75;68.96;96905.91;5050307;28;20053;-73
2021/03/20 07:47:25;;;;;;;11.00;6.07;;;;;;;1.21;66.96;96920.06;5048413;28;20049;-73
2021/03/20 07:50:08;;;;;;;12.10;6.20;;;;;;;1.89;63.43;96915.41;5049844;28;20207;-73
2021/03/20 07:52:35;;;;;;;;;;;;;;;2.46;60.92;96927.66;5049945;28;20067;-73
2021/03/20 07:55:12;;;;;;;9.70;5.65;;;;;;;2.59;60.44;96937.97;5048625;28;20476;-73
2021/03/20 07:57:39;;;;;;;8.30;5.40;;;;;;;2.68;59.45;96927.59;5049779;28;20053;-74
2021/03/20 08:00:21;;;;;;;9.63;5.22;;;;;;;3.33;59.89;96940.81;5048550;28;20060;-74
2021/03/20 08:02:48;;;;;;;7.53;5.10;;;;;;;4.13;59.45;96930.03;5050088;28;20049;-74
2021/03/20 08:05:29;;;;;;;10.50;5.32;;;;;;;4.59;59.29;96932.88;5048697;28;20538;-75
2021/03/20 08:07:55;;;;;;;6.72;4.38;;;;;;;4.94;57.66;96941.06;5048593;28;20049;-72
2021/03/20 08:10:26;;;;;;;6.22;4.57;;;;;;;4.41;55.59;96940.38;5048427;28;20103;-73
2021/03/20 08:12:58;;;;;;;6.43;5.05;;;;;;;3.95;55.35;96944.75;5049694;28;20565;-73
2021/03/20 08:15:28;;;;;;;6.80;5.25;;;;;;;3.44;57.37;96947.09;5049443;28;20441;-75
2021/03/20 08:17:58;;;;;;;7.35;5.30;;;;;;;3.23;57.31;96951.50;5048274;28;20046;-75
2021/03/20 08:20:24;;;;;;;6.97;5.25;;;;;;;3.09;57.89;96955.72;5049210;28;20051;-75
2021/03/20 08:23:14;;;;;;;7.70;5.25;;;;;;;2.96;58.73;96958.81;5048349;28;20071;-75
2021/03/20 08:25:57;;;;;;;9.73;5.30;;;;;;;2.77;59.87;96963.75;5039938;28;20610;-74
2021/03/20 08:28:39;;;;;;;10.68;6.10;;;;;;;2.41;62.11;96962.53;5048595;28;20045;-75
2021/03/20 08:31:09;;;;;;;9.55;6.03;;;;;;;1.97;63.60;96965.19;5048108;28;20049;-75
2021/03/20 08:33:50;;;;;;;11.68;6.78;;;;;;;1.69;64.84;96972.31;5049345;28;20053;-75
2021/03/20 08:36:26;;;;;;;11.30;8.00;;;;;;;1.30;65.27;96972.25;5047490;28;20056;-74
2021/03/20 08:39:02;;;;;;;11.43;7.53;;;;;;;1.05;66.53;96982.56;5048724;28;20045;-75
2021/03/20 08:41:39;;;;;;;12.70;7.85;;;;;;;0.85;67.27;96979.53;5048575;28;20432;-75
2021/03/20 08:44:37;;;;;;;12.85;7.38;;;;;;;0.59;68.43;96981.72;5047840;28;20049;-75
2021/03/20 08:47:27;;;;;;;12.48;7.43;;;;;;;0.52;69.01;96989.06;5048815;28;20704;-74
2021/03/20 08:50:05;;;;;;;11.77;7.18;;;;;;;0.50;68.52;96985.81;5048462;28;20052;-74
2021/03/20 08:52:39;;;;;;;12.15;8.10;;;;;;;0.43;68.19;96985.97;5047686;28;20049;-74
2021/03/20 08:55:20;;;;;;;11.20;7.30;;;;;;;0.23;66.67;96983.69;5048178;28;20052;-74
2021/03/20 08:57:55;;;;;;;13.32;8.00;;;;;;;0.29;67.49;96986.47;5046977;28;20045;-74
2021/03/20 09:00:28;;;;;;;10.13;7.35;;;;;;;0.36;67.84;96985.28;5048205;28;20049;-74
2021/03/20 09:03:01;;;;;;;12.50;7.05;;;;;;;0.38;66.62;96987.75;5047405;28;20052;-74
2021/03/20 09:05:31;;;;;;;11.57;7.55;;;;;;;0.40;66.29;96991.78;5048149;28;20049;-74
2021/03/20 09:08:04;;;;;;;10.38;6.75;;;;;;;0.60;66.70;96993.25;5048200;28;20049;-74
2021/03/20 09:10:37;;;;;;;10.82;7.07;;;;;;;0.99;64.68;96987.03;5047784;28;20041;-74
2021/03/20 09:13:11;;;;;;;12.55;8.15;;;;;;;1.35;63.44;96994.84;5048132;28;20063;-74
2021/03/20 09:15:43;;;;;;;10.65;7.25;;;;;;;1.42;63.04;96990.97;5047710;28;20076;-74
2021/03/20 09:18:13;;;;;;;11.93;7.32;;;;;;;1.68;62.72;96989.50;5047197;28;20091;-74
2021/03/20 09:20:45;;;;;;;9.13;6.82;;;;;;;1.82;62.58;96988.06;5047730;28;20045;-74
2021/03/20 09:23:20;;;;;;;11.80;7.03;;;;;;;1.86;62.46;96991.09;5047774;28;20045;-74
2021/03/20 09:25:46;;;;;;;11.98;5.88;;;;;;;1.81;61.68;96994.50;5047872;28;20045;-75
2021/03/20 09:28:14;;;;;;;9.23;6.47;;;;;;;2.09;60.74;96988.19;5046801;28;20064;-75
2021/03/20 09:30:42;;;;;;;8.02;6.13;;;;;;;2.75;61.34;96988.19;5048084;28;20614;-74
2021/03/20 09:33:29;;;;;;;10.18;7.18;;;;;;;3.76;59.35;96979.41;5046336;28;20044;-75
2021/03/20 09:35:59;;;;;;;10.02;5.72;;;;;;;4.63;54.47;96974.44;5048201;28;20099;-73
2021/03/20 09:38:46;;;;;;;10.85;7.43;;;;;;;5.34;53.83;96977.31;5026471;28;20095;-73
2021/03/20 09:41:37;;;;;;;8.98;5.78;;;;;;;6.10;53.82;96981.88;5025543;28;20053;-73
2021/03/20 09:44:12;;;;;;;7.60;5.40;;;;;;;6.49;48.25;96979.34;5026229;28;20096;-74
2021/03/20 09:46:52;;;;;;;6.20;4.90;;;;;;;5.87;47.57;96988.63;5027045;28;20049;-73
2021/03/20 09:49:49;;;;;;;6.63;4.50;;;;;;;4.96;49.68;96990.22;5046278;28;20102;-73
2021/03/20 09:52:51;;;;;;;9.15;5.63;;;;;;;4.40;51.85;96987.31;5046950;28;20060;-73
2021/03/20 09:55:45;;;;;;;7.85;4.85;;;;;;;4.04;52.83;96998.97;5046498;28;20049;-73
2021/03/20 09:58:40;;;;;;;10.02;6.55;;;;;;;3.81;54.64;96994.75;5047295;28;20507;-72
2021/03/20 10:01:16;;;;;;;9.15;6.00;;;;;;;3.66;55.42;96996.31;5046442;28;20107;-72
2021/03/20 10:04:08;;;;;;;12.88;9.35;;;;;;;3.52;56.00;97002.38;5046996;28;20056;-73
2021/03/20 10:06:38;;;;;;;7.55;5.80;;;;;;;3.39;55.80;96998.22;5047457;28;20048;-72
2021/03/20 10:09:24;;;;;;;9.73;6.47;;;;;;;3.28;56.34;96993.81;5046005;28;20049;-72
2021/03/20 10:12:13;;;;;;;8.10;5.57;;;;;;;3.09;56.31;96988.00;5047748;28;20099;-73
2021/03/20 10:15:19;;;;;;;9.05;6.07;;;;;;;2.92;56.88;96998.84;5047159;28;20041;-73
2021/03/20 10:18:24;;;;;;;8.80;6.53;;;;;;;2.70;56.44;96990.81;5044791;28;20535;-73
2021/03/20 10:21:18;;;;;;;8.80;5.47;;;;;;;2.71;56.02;96987.03;5033220;28;20393;-73
2021/03/20 10:23:52;;;;;;;9.85;5.85;;;;;;;2.87;57.00;96996.94;5027433;28;20458;-73
2021/03/20 10:26:28;;;;;;;8.20;5.60;;;;;;;3.37;56.80;96989.59;5025600;28;20060;-73
2021/03/20 10:28:56;;;;;;;11.02;6.47;;;;;;;3.65;57.57;96980.38;5044581;28;20053;-73
2021/03/20 10:31:23;;;;;;;9.20;5.72;;;;;;;3.84;56.81;96988.88;5050397;28;20051;-72
2021/03/20 10:34:00;;;;;;;9.27;5.72;;;;;;;4.05;55.66;96995.19;5051255;28;20492;-73
2021/03/20 10:36:32;;;;;;;11.20;5.50;;;;;;;4.04;54.90;96993.59;5050282;28;20044;-73
2021/03/20 10:38:58;;;;;;;9.60;5.50;;;;;;;4.07;54.01;96998.44;5050220;28;20144;-73
2021/03/20 10:41:30;;;;;;;8.82;5.50;;;;;;;4.02;53.61;97001.09;5050067;28;20142;-73
2021/03/20 10:44:02;;;;;;;8.75;6.13;;;;;;;3.98;54.16;96994.63;5049427;28;20056;-72
2021/03/20 10:46:30;;;;;;;7.68;4.80;;;;;;;3.85;51.70;96999.38;5050701;28;20613;-74
2021/03/20 10:48:59;;;;;;;12.45;5.63;;;;;;;3.70;52.67;96999.28;5049455;28;20512;-74
2021/03/20 10:51:33;;;;;;;12.93;6.35;;;;;;;3.76;53.02;97003.66;5050828;28;20056;-72
2021/03/20 10:54:09;;;;;;;13.63;6.72;;;;;;;3.98;55.72;96998.13;5050010;28;20049;-75
2021/03/20 10:56:39;;;;;;;9.50;6.50;;;;;;;4.10;55.49;97009.53;5050719;28;20125;-75
2021/03/20 10:59:13;;;;;;;10.93;5.72;;;;;;;4.08;54.32;97000.09;5049913;28;20048;-74
2021/03/20 11:01:39;;;;;;;14.27;6.32;;;;;;;4.04;52.86;96996.28;5049931;28;20047;-74
2021/03/20 11:04:05;;;;;;;9.43;6.10;;;;;;;3.97;52.16;97006.47;5050962;28;20056;-74
2021/03/20 11:06:32;;;;;;;8.27;6.00;;;;;;;3.78;51.57;96998.81;5049567;28;20052;-75
2021/03/20 11:09:08;;;;;;;10.23;6.50;;;;;;;3.53;56.29;96987.84;5051088;28;20048;-74
2021/03/20 11:11:38;;;;;;;8.43;6.28;;;;;;;3.43;57.67;97001.22;5049903;28;20140;-74
2021/03/20 11:14:07;;;;;;;10.52;6.45;;;;;;;3.36;58.43;96999.56;5047931;28;20072;-75
2021/03/20 11:16:39;;;;;;;8.27;6.00;;;;;;;3.14;56.62;97009.56;5050405;28;20061;-74
2021/03/20 11:19:15;;;;;;;8.05;5.28;;;;;;;2.84;55.41;97008.19;5049577;28;20053;-74
2021/03/20 11:21:44;;;;;;;13.85;6.88;;;;;;;2.68;59.49;97006.41;5050996;28;20052;-74
2021/03/20 11:24:22;;;;;;;9.90;6.22;;;;;;;2.59;59.40;96999.81;5049041;28;20044;-74
2021/03/20 11:26:50;;;;;;;9.70;6.45;;;;;;;2.60;59.63;97009.50;5050621;28;20049;-74
2021/03/20 11:29:19;;;;;;;9.88;6.32;;;;;;;2.64;59.36;97007.16;5040586;28;20057;-74
2021/03/20 11:31:51;;;;;;;11.98;6.55;;;;;;;2.60;58.63;97007.63;5030490;28;20052;-74
2021/03/20 11:34:22;;;;;;;8.40;5.70;;;;;;;2.48;56.40;97014.22;5030342;28;20123;-75
2021/03/20 11:36:49;;;;;;;10.20;5.70;;;;;;;2.45;56.60;97014.69;5029838;28;20049;-74
2021/03/20 11:39:16;;;;;;;8.45;5.88;;;;;;;2.40;56.84;97006.56;5029193;28;20064;-75
2021/03/20 11:41:44;;;;;;;9.82;5.57;;;;;;;2.45;57.00;97012.00;5036447;28;20049;-74
2021/03/20 11:44:22;;;;;;;9.15;5.18;;;;;;;2.50;55.21;97006.69;5049658;28;20074;-74
2021/03/20 11:46:51;;;;;;;7.80;5.25;;;;;;;2.44;56.19;97005.00;5048994;28;20055;-74
2021/03/20 11:49:26;;;;;;;8.88;5.43;;;;;;;2.58;56.77;97003.59;5049170;28;20068;-75
2021/03/20 11:51:54;;;;;;;10.60;5.75;;;;;;;2.49;55.72;96999.69;5049259;28;20523;-74
2021/03/20 11:54:28;;;;;;;12.55;6.63;;;;;;;2.50;55.11;96998.63;5048524;28;20053;-74
2021/03/20 11:56:59;;;;;;;8.50;5.30;;;;;;;2.49;55.58;96994.31;5049457;28;20049;-75
2021/03/20 11:59:48;;;;;;;9.27;6.53;;;;;;;2.22;56.84;96989.69;5048240;28;20045;-74
2021/03/20 12:02:34;;;;;;;12.98;5.60;;;;;;;2.11;55.37;96990.63;5046502;28;20049;-74